sensor_id;sensor_type;location;lat;lon;timestamp;temperature;humidity
55016;DHT22;40919;43.236;21.590;2022-09-03T07:47:30;486.70;2380.80
55016;DHT22;40919;43.236;21.590;2022-09-03T07:49:56;486.70;2380.80
55016;DHT22;40919;43.236;21.590;2022-09-03T07:52:23;486.80;2380.80
55016;DHT22;40919;43.236;21.590;2022-09-03T07:54:48;486.80;2380.80
55016;DHT22;40919;43.236;21.590;2022-09-03T07:57:14;486.80;2380.80
55016;DHT22;40919;43.236;21.590;2022-09-03T07:59:40;486.80;2380.80
55016;DHT22;40919;43.236;21.590;2022-09-03T08:02:06;486.90;2380.80
55016;DHT22;40919;43.236;21.590;2022-09-03T08:04:32;486.90;2380.80
55016;DHT22;40919;43.236;21.590;2022-09-03T08:06:58;512.10;2380.80
55016;DHT22;40919;43.236;21.590;2022-09-03T08:09:24;487.10;2380.80
55016;DHT22;40919;43.236;21.590;2022-09-03T08:11:50;486.90;2380.80
55016;DHT22;40919;43.236;21.590;2022-09-03T08:14:16;487.00;2380.80
55016;DHT22;40919;43.236;21.590;2022-09-03T08:16:45;487.00;2380.80
55016;DHT22;40919;43.236;21.590;2022-09-03T08:19:15;486.90;2380.80
55016;DHT22;40919;43.236;21.590;2022-09-03T08:21:43;486.80;2380.80
55016;DHT22;40919;43.236;21.590;2022-09-03T08:24:10;486.80;2380.80
55016;DHT22;40919;43.236;21.590;2022-09-03T08:26:39;486.90;2380.80
55016;DHT22;40919;43.236;21.590;2022-09-03T08:29:06;486.90;2380.80
55016;DHT22;40919;43.236;21.590;2022-09-03T08:31:33;486.90;2380.80
55016;DHT22;40919;43.236;21.590;2022-09-03T08:34:00;487.30;2380.80
55016;DHT22;40919;43.236;21.590;2022-09-03T08:36:35;512.00;2380.80
55016;DHT22;40919;43.236;21.590;2022-09-03T08:39:03;512.10;2380.80
55016;DHT22;40919;43.236;21.590;2022-09-03T08:41:53;512.30;2380.80
55016;DHT22;40919;43.236;21.590;2022-09-03T08:55:26;537.60;2406.40
55016;DHT22;40919;43.236;21.590;2022-09-03T09:22:30;537.80;2406.40
55016;DHT22;40919;43.236;21.590;2022-09-03T09:25:03;537.80;2406.40
55016;DHT22;40919;43.236;21.590;2022-09-03T09:27:31;537.90;2406.40
55016;DHT22;40919;43.236;21.590;2022-09-03T09:29:58;537.80;2406.40
55016;DHT22;40919;43.236;21.590;2022-09-03T09:32:26;538.00;2406.40
55016;DHT22;40919;43.236;21.590;2022-09-03T09:34:52;538.00;2406.40
55016;DHT22;40919;43.236;21.590;2022-09-03T09:37:20;538.00;2406.40
55016;DHT22;40919;43.236;21.590;2022-09-03T09:39:58;538.20;2406.40
55016;DHT22;40919;43.236;21.590;2022-09-03T09:42:25;538.50;2406.40
55016;DHT22;40919;43.236;21.590;2022-09-03T09:44:52;538.40;2406.40
55016;DHT22;40919;43.236;21.590;2022-09-03T09:47:22;538.20;2406.40
55016;DHT22;40919;43.236;21.590;2022-09-03T09:49:55;538.20;2406.40
55016;DHT22;40919;43.236;21.590;2022-09-03T09:52:23;538.20;2406.40
55016;DHT22;40919;43.236;21.590;2022-09-03T09:54:52;538.30;2406.40
55016;DHT22;40919;43.236;21.590;2022-09-03T09:57:24;538.30;2406.40
55016;DHT22;40919;43.236;21.590;2022-09-03T10:00:02;538.30;2406.40
55016;DHT22;40919;43.236;21.590;2022-09-03T10:02:34;538.30;2406.40
55016;DHT22;40919;43.236;21.590;2022-09-03T10:05:26;538.40;2406.40
55016;DHT22;40919;43.236;21.590;2022-09-03T10:08:04;538.40;2406.40
55016;DHT22;40919;43.236;21.590;2022-09-03T10:10:43;538.50;2406.40
55016;DHT22;40919;43.236;21.590;2022-09-03T10:16:02;563.30;2432.00
55016;DHT22;40919;43.236;21.590;2022-09-03T10:18:40;563.40;2432.00
55016;DHT22;40919;43.236;21.590;2022-09-03T10:21:29;563.30;2432.00
55016;DHT22;40919;43.236;21.590;2022-09-03T10:24:20;563.30;2432.00
55016;DHT22;40919;43.236;21.590;2022-09-03T10:26:51;563.30;2432.00
55016;DHT22;40919;43.236;21.590;2022-09-03T10:29:21;563.20;2432.00
55016;DHT22;40919;43.236;21.590;2022-09-03T10:31:53;563.40;2432.00
55016;DHT22;40919;43.236;21.590;2022-09-03T11:42:11;564.00;2432.00
55016;DHT22;40919;43.236;21.590;2022-09-03T11:44:40;563.90;2432.00
55016;DHT22;40919;43.236;21.590;2022-09-03T11:47:15;564.00;2432.00
55016;DHT22;40919;43.236;21.590;2022-09-03T11:49:47;564.10;2432.00
55016;DHT22;40919;43.236;21.590;2022-09-03T12:13:04;589.30;2432.00
55016;DHT22;40919;43.236;21.590;2022-09-03T12:18:27;614.80;2432.00
55016;DHT22;40919;43.236;21.590;2022-09-03T12:23:49;640.00;2432.00
55016;DHT22;40919;43.236;21.590;2022-09-03T12:26:20;640.20;2432.00
55016;DHT22;40919;43.236;21.590;2022-09-03T12:28:56;640.10;2432.00
55016;DHT22;40919;43.236;21.590;2022-09-03T12:31:31;640.10;2432.00
55016;DHT22;40919;43.236;21.590;2022-09-03T12:34:14;640.00;2432.00
55016;DHT22;40919;43.236;21.590;2022-09-03T12:36:46;615.00;2432.00
55016;DHT22;40919;43.236;21.590;2022-09-03T12:39:17;614.70;2432.00
55016;DHT22;40919;43.236;21.590;2022-09-03T12:42:01;614.80;2432.00
55016;DHT22;40919;43.236;21.590;2022-09-03T12:44:40;640.00;2432.00
55016;DHT22;40919;43.236;21.590;2022-09-03T12:47:14;615.10;2432.00
55016;DHT22;40919;43.236;21.590;2022-09-03T12:49:47;615.20;2432.00
55016;DHT22;40919;43.236;21.590;2022-09-03T12:55:01;614.60;2432.00
55016;DHT22;40919;43.236;21.590;2022-09-03T12:57:50;614.50;2432.00
55016;DHT22;40919;43.236;21.590;2022-09-03T13:00:18;614.70;2432.00
55016;DHT22;40919;43.236;21.590;2022-09-03T13:02:59;614.70;2432.00
55016;DHT22;40919;43.236;21.590;2022-09-03T13:06:02;614.70;2432.00
55016;DHT22;40919;43.236;21.590;2022-09-03T13:08:48;614.70;2432.00
55016;DHT22;40919;43.236;21.590;2022-09-03T13:11:16;614.50;2432.00
55016;DHT22;40919;43.236;21.590;2022-09-03T13:14:01;614.80;2432.00
55016;DHT22;40919;43.236;21.590;2022-09-03T13:27:32;691.70;2432.00
55016;DHT22;40919;43.236;21.590;2022-09-03T13:30:22;692.10;2432.00
55016;DHT22;40919;43.236;21.590;2022-09-03T13:33:14;692.00;2432.00
55016;DHT22;40919;43.236;21.590;2022-09-03T13:36:09;717.30;2432.00
55016;DHT22;40919;43.236;21.590;2022-09-03T13:41:15;742.50;2432.00
55016;DHT22;40919;43.236;21.590;2022-09-03T13:43:57;742.50;2432.00
55016;DHT22;40919;43.236;21.590;2022-09-03T13:46:51;717.40;2355.20
55016;DHT22;40919;43.236;21.590;2022-09-03T13:49:26;742.40;2406.40
55016;DHT22;40919;43.236;21.590;2022-09-03T13:52:26;742.50;2355.20
55016;DHT22;40919;43.236;21.590;2022-09-03T13:55:00;742.40;2380.80
55016;DHT22;40919;43.236;21.590;2022-09-03T14:00:13;717.70;2432.00
55016;DHT22;40919;43.236;21.590;2022-09-03T14:08:44;717.50;2432.00
55016;DHT22;40919;43.236;21.590;2022-09-03T14:14:13;717.70;2252.80
55016;DHT22;40919;43.236;21.590;2022-09-03T14:25:19;716.80;2380.80
55016;DHT22;40919;43.236;21.590;2022-09-03T14:27:46;716.90;2329.60
55016;DHT22;40919;43.236;21.590;2022-09-03T14:35:44;717.30;2304.00
55016;DHT22;40919;43.236;21.590;2022-09-03T14:38:37;716.80;2380.80
55016;DHT22;40919;43.236;21.590;2022-09-03T14:41:27;691.90;2432.00
55016;DHT22;40919;43.236;21.590;2022-09-03T14:46:57;717.10;2329.60
55016;DHT22;40919;43.236;21.590;2022-09-03T14:53:06;717.30;2304.00
55016;DHT22;40919;43.236;21.590;2022-09-03T15:00:25;717.20;2329.60
55016;DHT22;40919;43.236;21.590;2022-09-03T15:03:38;717.40;2355.20
55016;DHT22;40919;43.236;21.590;2022-09-03T15:11:32;717.60;2304.00
55016;DHT22;40919;43.236;21.590;2022-09-03T15:14:34;717.70;2278.40
55016;DHT22;40919;43.236;21.590;2022-09-03T15:25:38;716.90;2252.80
55016;DHT22;40919;43.236;21.590;2022-09-03T15:31:01;716.80;2329.60
55016;DHT22;40919;43.236;21.590;2022-09-03T15:33:45;691.80;2329.60
55016;DHT22;40919;43.236;21.590;2022-09-03T15:36:39;692.00;2380.80
55016;DHT22;40919;43.236;21.590;2022-09-03T15:39:11;691.60;2304.00
55016;DHT22;40919;43.236;21.590;2022-09-03T15:47:08;666.30;2432.00
55016;DHT22;40919;43.236;21.590;2022-09-03T15:50:02;666.00;2432.00
55016;DHT22;40919;43.236;21.590;2022-09-03T15:53:03;665.70;2432.00
55016;DHT22;40919;43.236;21.590;2022-09-03T15:55:33;640.60;2432.00
55016;DHT22;40919;43.236;21.590;2022-09-03T15:58:20;640.40;2432.00
55016;DHT22;40919;43.236;21.590;2022-09-03T16:03:30;640.10;2432.00
55016;DHT22;40919;43.236;21.590;2022-09-03T16:06:02;640.10;2432.00
55016;DHT22;40919;43.236;21.590;2022-09-03T16:08:48;615.30;2432.00
55016;DHT22;40919;43.236;21.590;2022-09-03T16:14:19;615.20;2432.00
55016;DHT22;40919;43.236;21.590;2022-09-03T16:17:17;615.10;2432.00
55016;DHT22;40919;43.236;21.590;2022-09-03T16:20:03;614.90;2432.00
55016;DHT22;40919;43.236;21.590;2022-09-03T16:22:39;614.90;2432.00
55016;DHT22;40919;43.236;21.590;2022-09-03T16:25:21;614.80;2432.00
55016;DHT22;40919;43.236;21.590;2022-09-03T16:28:03;614.70;2432.00
55016;DHT22;40919;43.236;21.590;2022-09-03T16:30:51;614.70;2432.00
55016;DHT22;40919;43.236;21.590;2022-09-03T16:41:43;589.50;2432.00
55016;DHT22;40919;43.236;21.590;2022-09-03T16:53:11;588.90;2432.00
55016;DHT22;40919;43.236;21.590;2022-09-03T17:04:25;563.90;2432.00
55016;DHT22;40919;43.236;21.590;2022-09-03T17:09:54;563.70;2432.00
55016;DHT22;40919;43.236;21.590;2022-09-03T17:17:57;563.60;2432.00
55016;DHT22;40919;43.236;21.590;2022-09-03T17:23:53;563.40;2432.00
55016;DHT22;40919;43.236;21.590;2022-09-03T17:35:11;538.50;2406.40
55016;DHT22;40919;43.236;21.590;2022-09-03T17:40:47;538.30;2406.40
55016;DHT22;40919;43.236;21.590;2022-09-03T17:43:30;538.20;2406.40
55016;DHT22;40919;43.236;21.590;2022-09-03T17:48:59;538.10;2406.40
55016;DHT22;40919;43.236;21.590;2022-09-03T17:51:34;538.00;2406.40
55016;DHT22;40919;43.236;21.590;2022-09-03T17:57:09;537.90;2406.40
55016;DHT22;40919;43.236;21.590;2022-09-03T17:59:50;537.90;2406.40
55016;DHT22;40919;43.236;21.590;2022-09-03T18:02:42;537.90;2406.40
55016;DHT22;40919;43.236;21.590;2022-09-03T18:08:23;537.90;2406.40
55016;DHT22;40919;43.236;21.590;2022-09-03T18:19:47;537.90;2406.40
55016;DHT22;40919;43.236;21.590;2022-09-03T18:22:35;537.80;2406.40
55016;DHT22;40919;43.236;21.590;2022-09-03T18:25:23;537.60;2406.40
55016;DHT22;40919;43.236;21.590;2022-09-03T18:28:13;512.90;2380.80
55016;DHT22;40919;43.236;21.590;2022-09-03T18:30:59;512.80;2380.80
55016;DHT22;40919;43.236;21.590;2022-09-03T18:33:43;512.80;2380.80
55016;DHT22;40919;43.236;21.590;2022-09-03T18:36:29;512.70;2380.80
55016;DHT22;40919;43.236;21.590;2022-09-03T18:39:23;512.60;2380.80
55016;DHT22;40919;43.236;21.590;2022-09-03T18:42:27;512.60;2380.80
55016;DHT22;40919;43.236;21.590;2022-09-03T18:45:54;512.40;2380.80
55016;DHT22;40919;43.236;21.590;2022-09-03T18:51:50;512.30;2380.80
55016;DHT22;40919;43.236;21.590;2022-09-03T18:55:08;512.40;2380.80
55016;DHT22;40919;43.236;21.590;2022-09-03T18:58:16;512.30;2380.80
55016;DHT22;40919;43.236;21.590;2022-09-03T19:01:21;512.20;2380.80
55016;DHT22;40919;43.236;21.590;2022-09-03T19:04:23;512.30;2380.80
55016;DHT22;40919;43.236;21.590;2022-09-03T19:07:19;512.20;2380.80
55016;DHT22;40919;43.236;21.590;2022-09-03T19:10:22;512.10;2380.80
55016;DHT22;40919;43.236;21.590;2022-09-03T19:16:05;512.10;2380.80
55016;DHT22;40919;43.236;21.590;2022-09-03T19:19:03;512.00;2380.80
55016;DHT22;40919;43.236;21.590;2022-09-03T19:22:09;512.00;2380.80
55016;DHT22;40919;43.236;21.590;2022-09-03T19:24:59;487.20;2380.80
55016;DHT22;40919;43.236;21.590;2022-09-03T19:37:16;487.10;2380.80
55016;DHT22;40919;43.236;21.590;2022-09-03T19:52:20;487.10;2380.80
55016;DHT22;40919;43.236;21.590;2022-09-03T19:55:07;487.10;2380.80
55016;DHT22;40919;43.236;21.590;2022-09-03T19:57:57;487.00;2380.80
55016;DHT22;40919;43.236;21.590;2022-09-03T20:00:42;487.10;2380.80
55016;DHT22;40919;43.236;21.590;2022-09-03T20:03:26;486.90;2380.80
55016;DHT22;40919;43.236;21.590;2022-09-03T20:06:13;486.80;2380.80
55016;DHT22;40919;43.236;21.590;2022-09-03T20:09:07;486.70;2380.80
55016;DHT22;40919;43.236;21.590;2022-09-03T20:11:55;486.60;2380.80
55016;DHT22;40919;43.236;21.590;2022-09-03T20:14:22;486.80;2380.80
55016;DHT22;40919;43.236;21.590;2022-09-03T20:17:23;486.80;2380.80
55016;DHT22;40919;43.236;21.590;2022-09-03T20:31:26;486.70;2380.80
55016;DHT22;40919;43.236;21.590;2022-09-03T20:34:17;486.60;2380.80
55016;DHT22;40919;43.236;21.590;2022-09-03T20:42:01;486.50;2380.80
55016;DHT22;40919;43.236;21.590;2022-09-03T20:47:44;486.60;2380.80
55016;DHT22;40919;43.236;21.590;2022-09-03T20:50:27;486.60;2380.80
55016;DHT22;40919;43.236;21.590;2022-09-03T20:55:50;486.40;2380.80
55016;DHT22;40919;43.236;21.590;2022-09-03T21:13:16;461.60;2380.80
55016;DHT22;40919;43.236;21.590;2022-09-03T21:15:53;461.70;2380.80
55016;DHT22;40919;43.236;21.590;2022-09-03T21:24:13;461.60;2380.80
55016;DHT22;40919;43.236;21.590;2022-09-03T21:26:45;461.60;2380.80
55016;DHT22;40919;43.236;21.590;2022-09-03T21:29:24;461.50;2380.80
55016;DHT22;40919;43.236;21.590;2022-09-03T21:32:04;461.50;2380.80
55016;DHT22;40919;43.236;21.590;2022-09-03T21:34:39;461.40;2380.80
55016;DHT22;40919;43.236;21.590;2022-09-03T21:37:10;461.50;2380.80
55016;DHT22;40919;43.236;21.590;2022-09-03T21:39:44;461.50;2380.80
55016;DHT22;40919;43.236;21.590;2022-09-03T21:48:05;461.50;2380.80
55016;DHT22;40919;43.236;21.590;2022-09-03T21:50:51;461.40;2380.80
55016;DHT22;40919;43.236;21.590;2022-09-03T21:53:36;461.40;2380.80
55016;DHT22;40919;43.236;21.590;2022-09-03T21:56:38;461.40;2380.80
55016;DHT22;40919;43.236;21.590;2022-09-03T22:00:25;461.50;2380.80
55016;DHT22;40919;43.236;21.590;2022-09-03T22:02:26;461.50;2380.80
55016;DHT22;40919;43.236;21.590;2022-09-03T22:04:54;461.40;2380.80
55016;DHT22;40919;43.236;21.590;2022-09-03T22:15:44;461.40;2380.80
55016;DHT22;40919;43.236;21.590;2022-09-03T22:18:31;461.30;2380.80
55016;DHT22;40919;43.236;21.590;2022-09-03T22:21:16;461.20;2380.80
55016;DHT22;40919;43.236;21.590;2022-09-03T22:23:47;461.10;2380.80
55016;DHT22;40919;43.236;21.590;2022-09-03T22:26:30;461.20;2380.80
55016;DHT22;40919;43.236;21.590;2022-09-03T22:29:22;461.10;2380.80
55016;DHT22;40919;43.236;21.590;2022-09-03T22:35:07;461.30;2380.80
55016;DHT22;40919;43.236;21.590;2022-09-03T22:38:01;461.40;2380.80
55016;DHT22;40919;43.236;21.590;2022-09-03T22:40:54;461.30;2380.80
55016;DHT22;40919;43.236;21.590;2022-09-03T22:43:37;461.30;2380.80
55016;DHT22;40919;43.236;21.590;2022-09-03T22:46:17;461.30;2380.80
55016;DHT22;40919;43.236;21.590;2022-09-03T22:48:53;461.30;2380.80
55016;DHT22;40919;43.236;21.590;2022-09-03T22:51:23;461.20;2380.80
55016;DHT22;40919;43.236;21.590;2022-09-03T22:56:55;461.30;2380.80
55016;DHT22;40919;43.236;21.590;2022-09-03T22:59:54;461.20;2380.80
55016;DHT22;40919;43.236;21.590;2022-09-03T23:02:21;461.20;2380.80
55016;DHT22;40919;43.236;21.590;2022-09-03T23:05:09;461.20;2380.80
55016;DHT22;40919;43.236;21.590;2022-09-03T23:08:02;461.10;2380.80
55016;DHT22;40919;43.236;21.590;2022-09-03T23:10:52;461.10;2380.80
55016;DHT22;40919;43.236;21.590;2022-09-03T23:18:45;461.10;2380.80
55016;DHT22;40919;43.236;21.590;2022-09-03T23:21:38;461.10;2380.80
55016;DHT22;40919;43.236;21.590;2022-09-03T23:24:10;461.00;2380.80
55016;DHT22;40919;43.236;21.590;2022-09-03T23:26:49;461.00;2380.80
55016;DHT22;40919;43.236;21.590;2022-09-03T23:31:43;461.10;2380.80
55016;DHT22;40919;43.236;21.590;2022-09-03T23:34:10;461.00;2380.80
55016;DHT22;40919;43.236;21.590;2022-09-03T23:48:12;460.80;2380.80
